Time;durP1;ratioP1;P1;durP2;ratioP2;P2;SDS_P1;SDS_P2;PMS_P1;PMS_P2;Temp;Humidity;BMP_temperature;BMP_pressure;BME280_temperature;BME280_humidity;BME280_pressure;Samples;Min_cycle;Max_cycle;Signal;HPM_P1;HPM_P2
2022/03/24 00:00:29;;;;;;;17.23;14.23;;;;;;;;;;4502482;28;20036;-60
2022/03/24 00:02:40;;;;;;;17.07;14.33;;;;;;;;;;4503734;28;20034;-61
2022/03/24 00:04:50;;;;;;;15.77;13.70;;;;;;;;;;4503007;28;20573;-61
2022/03/24 00:07:01;;;;;;;16.70;13.40;;;;;;;;;;4503466;28;20092;-60
2022/03/24 00:09:11;;;;;;;15.83;13.13;;;;;;;;;;4503474;28;20038;-60
2022/03/24 00:11:22;;;;;;;16.83;13.13;;;;;;;;;;4501572;28;34236;-60
2022/03/24 00:13:32;;;;;;;16.53;13.13;;;;;;;;;;4500263;28;22758;-62
2022/03/24 00:15:43;;;;;;;15.93;12.97;;;;;;;;;;4501864;28;20030;-60
2022/03/24 00:17:53;;;;;;;16.13;12.93;;;;;;;;;;4495328;28;20034;-61
2022/03/24 00:20:05;;;;;;;16.10;13.53;;;;;;;;;;4500990;28;20044;-60
2022/03/24 00:22:15;;;;;;;15.15;13.15;;;;;;;;;;4501862;28;20608;-60
2022/03/24 00:24:26;;;;;;;16.17;13.70;;;;;;;;;;4502621;28;29789;-60
2022/03/24 00:26:37;;;;;;;16.43;13.10;;;;;;;;;;4500868;28;20044;-60
2022/03/24 00:28:47;;;;;;;14.98;12.98;;;;;;;;;;4503105;28;20084;-60
2022/03/24 00:30:58;;;;;;;17.03;13.30;;;;;;;;;;4501169;28;20060;-60
2022/03/24 00:33:09;;;;;;;17.63;14.10;;;;;;;;;;4502406;28;20044;-61
2022/03/24 00:35:21;;;;;;;16.37;13.50;;;;;;;;;;4501979;28;20092;-60
2022/03/24 00:37:32;;;;;;;18.45;14.65;;;;;;;;;;4485494;28;20034;-60
2022/03/24 00:39:43;;;;;;;16.48;13.77;;;;;;;;;;4502596;28;20038;-60
2022/03/24 00:41:53;;;;;;;16.20;13.33;;;;;;;;;;4503306;28;20141;-60
2022/03/24 00:44:04;;;;;;;15.97;13.80;;;;;;;;;;4501886;28;20382;-61
2022/03/24 00:46:16;;;;;;;17.37;14.10;;;;;;;;;;4500638;28;20045;-60
2022/03/24 00:48:26;;;;;;;16.58;14.32;;;;;;;;;;4501655;28;20506;-61
2022/03/24 00:50:37;;;;;;;16.90;14.50;;;;;;;;;;4497905;28;20046;-61
2022/03/24 00:52:47;;;;;;;16.33;13.67;;;;;;;;;;4503057;28;20169;-60
2022/03/24 00:54:58;;;;;;;16.77;14.30;;;;;;;;;;4485531;28;20042;-60
2022/03/24 00:57:08;;;;;;;16.37;13.43;;;;;;;;;;4503549;28;21003;-60
2022/03/24 00:59:22;;;;;;;15.52;13.30;;;;;;;;;;4491410;28;20083;-60
2022/03/24 01:01:33;;;;;;;16.50;13.98;;;;;;;;;;4502805;28;20025;-60
2022/03/24 01:03:43;;;;;;;16.17;12.50;;;;;;;;;;4500875;28;25978;-61
2022/03/24 01:05:54;;;;;;;14.50;12.07;;;;;;;;;;4502844;28;20048;-60
2022/03/24 01:08:08;;;;;;;15.77;12.93;;;;;;;;;;4504125;28;20044;-60
2022/03/24 01:10:19;;;;;;;15.98;12.43;;;;;;;;;;4493604;28;20049;-61
2022/03/24 01:12:30;;;;;;;15.32;12.60;;;;;;;;;;4498794;28;20132;-60
2022/03/24 01:14:40;;;;;;;13.57;11.60;;;;;;;;;;4500955;28;20105;-60
2022/03/24 01:16:51;;;;;;;14.63;12.63;;;;;;;;;;4501742;28;31167;-60
2022/03/24 01:19:04;;;;;;;15.73;12.65;;;;;;;;;;4502376;28;20555;-60
2022/03/24 01:21:16;;;;;;;15.27;13.00;;;;;;;;;;4500932;28;20034;-60
2022/03/24 01:23:26;;;;;;;14.35;12.20;;;;;;;;;;4501761;28;20041;-62
2022/03/24 01:25:37;;;;;;;14.37;12.37;;;;;;;;;;4503049;28;20398;-60
2022/03/24 01:27:48;;;;;;;15.40;12.90;;;;;;;;;;4484889;28;20073;-60
2022/03/24 01:29:59;;;;;;;;;;;;;;;;;;4501638;28;20036;-60
2022/03/24 01:32:10;;;;;;;14.05;12.18;;;;;;;;;;4501323;28;19924;-60
2022/03/24 01:34:21;;;;;;;14.85;12.25;;;;;;;;;;4494595;28;20077;-61
2022/03/24 01:36:31;;;;;;;16.63;13.17;;;;;;;;;;4501866;28;20032;-60
2022/03/24 01:38:42;;;;;;;14.07;12.17;;;;;;;;;;4487255;28;24354;-60
2022/03/24 01:40:53;;;;;;;14.57;12.32;;;;;;;;;;4500342;28;20166;-60
2022/03/24 01:43:07;;;;;;;15.40;12.90;;;;;;;;;;4501115;28;20764;-64
2022/03/24 01:45:19;;;;;;;15.05;13.10;;;;;;;;;;4502963;28;20052;-60
2022/03/24 01:47:29;;;;;;;;;;;;;;;;;;4501557;28;20117;-60
2022/03/24 01:49:42;;;;;;;15.07;12.25;;;;;;;;;;4501020;28;20226;-60
2022/03/24 01:51:53;;;;;;;15.23;13.02;;;;;;;;;;4501288;28;20283;-60
2022/03/24 01:54:05;;;;;;;15.05;12.43;;;;;;;;;;4499682;28;20053;-60
2022/03/24 01:56:16;;;;;;;15.07;12.57;;;;;;;;;;4501214;28;20124;-60
2022/03/24 01:58:28;;;;;;;15.27;13.30;;;;;;;;;;4484545;28;20037;-60
2022/03/24 02:00:39;;;;;;;14.07;12.57;;;;;;;;;;4500655;28;20034;-61
2022/03/24 02:02:50;;;;;;;15.33;12.90;;;;;;;;;;4501881;28;20030;-60
2022/03/24 02:05:01;;;;;;;14.57;11.65;;;;;;;;;;4500834;28;20038;-60
2022/03/24 02:07:17;;;;;;;14.07;11.55;;;;;;;;;;4503297;28;20584;-60
2022/03/24 02:09:28;;;;;;;;;;;;;;;;;;4517411;28;20037;-60
2022/03/24 02:11:39;;;;;;;13.68;11.52;;;;;;;;;;4490715;28;19921;-60
2022/03/24 02:13:50;;;;;;;13.70;11.73;;;;;;;;;;4502937;28;27835;-60
2022/03/24 02:16:01;;;;;;;14.97;11.87;;;;;;;;;;4502306;28;20026;-61
2022/03/24 02:18:13;;;;;;;13.75;10.50;;;;;;;;;;4501515;28;20030;-60
2022/03/24 02:20:26;;;;;;;12.32;10.15;;;;;;;;;;4500112;28;20022;-60
2022/03/24 02:22:36;;;;;;;13.30;10.63;;;;;;;;;;4501568;28;20033;-60
2022/03/24 02:24:46;;;;;;;15.00;11.07;;;;;;;;;;4502282;28;20042;-61
2022/03/24 02:26:59;;;;;;;13.97;11.77;;;;;;;;;;4501633;28;20026;-60
2022/03/24 02:29:10;;;;;;;13.20;11.15;;;;;;;;;;4501194;28;20083;-61
2022/03/24 02:31:21;;;;;;;16.08;12.15;;;;;;;;;;4497660;28;20057;-60
2022/03/24 02:33:31;;;;;;;14.90;11.77;;;;;;;;;;4501083;28;20034;-60
2022/03/24 02:35:42;;;;;;;12.30;10.57;;;;;;;;;;4501207;28;34924;-60
2022/03/24 02:37:52;;;;;;;13.30;10.40;;;;;;;;;;4500235;28;20045;-61
2022/03/24 02:40:04;;;;;;;13.40;10.40;;;;;;;;;;4500746;28;20042;-60
2022/03/24 02:42:17;;;;;;;13.38;10.98;;;;;;;;;;4503784;28;20467;-60
2022/03/24 02:44:33;;;;;;;12.52;10.63;;;;;;;;;;4498927;28;20038;-60
2022/03/24 02:46:46;;;;;;;12.65;10.45;;;;;;;;;;4504020;28;20038;-60
2022/03/24 02:48:56;;;;;;;13.05;10.82;;;;;;;;;;4504031;28;20042;-60
2022/03/24 02:51:07;;;;;;;13.37;10.07;;;;;;;;;;4503949;28;20125;-60
2022/03/24 02:53:17;;;;;;;13.03;10.40;;;;;;;;;;4504785;28;20061;-60
2022/03/24 02:55:28;;;;;;;12.80;10.40;;;;;;;;;;4502921;28;20509;-60
2022/03/24 02:57:38;;;;;;;13.83;11.07;;;;;;;;;;4504695;28;20113;-60
2022/03/24 02:59:49;;;;;;;13.73;11.10;;;;;;;;;;4502706;28;20034;-60
2022/03/24 03:02:14;;;;;;;12.27;10.23;;;;;;;;;;4504105;28;20037;-60
2022/03/24 03:04:24;;;;;;;14.15;11.50;;;;;;;;;;4504747;28;20027;-60
2022/03/24 03:06:35;;;;;;;13.43;11.40;;;;;;;;;;4503245;28;20521;-61
2022/03/24 03:08:49;;;;;;;13.67;11.33;;;;;;;;;;4486825;28;20093;-60
2022/03/24 03:10:59;;;;;;;13.98;11.43;;;;;;;;;;4499448;28;20149;-60
2022/03/24 03:13:10;;;;;;;14.00;11.30;;;;;;;;;;4503191;28;29435;-60
2022/03/24 03:15:21;;;;;;;13.43;11.60;;;;;;;;;;4503415;28;35717;-60
2022/03/24 03:17:34;;;;;;;14.03;11.30;;;;;;;;;;4504727;28;20037;-60
2022/03/24 03:19:45;;;;;;;13.18;10.98;;;;;;;;;;4503245;28;20088;-60
2022/03/24 03:21:56;;;;;;;13.90;11.13;;;;;;;;;;4503374;28;20041;-60
2022/03/24 03:24:08;;;;;;;13.93;11.63;;;;;;;;;;4504519;28;20064;-60
2022/03/24 03:26:19;;;;;;;14.60;11.50;;;;;;;;;;4503028;28;20030;-60
2022/03/24 03:28:29;;;;;;;14.13;12.00;;;;;;;;;;4502284;28;20046;-60
2022/03/24 03:30:40;;;;;;;13.63;11.43;;;;;;;;;;4504326;28;20030;-60
2022/03/24 03:32:51;;;;;;;14.30;11.50;;;;;;;;;;4504015;28;20046;-60
2022/03/24 03:35:01;;;;;;;14.00;11.67;;;;;;;;;;4503086;28;30039;-60
2022/03/24 03:37:12;;;;;;;13.77;11.27;;;;;;;;;;4503880;28;20544;-60
2022/03/24 03:39:23;;;;;;;13.83;11.40;;;;;;;;;;4501668;28;36203;-60
2022/03/24 03:41:35;;;;;;;13.95;11.40;;;;;;;;;;4504657;28;20108;-60
2022/03/24 03:43:47;;;;;;;12.18;10.60;;;;;;;;;;4503921;28;20042;-60
2022/03/24 03:45:58;;;;;;;13.93;11.93;;;;;;;;;;4503091;28;20038;-60
2022/03/24 03:48:09;;;;;;;13.82;11.10;;;;;;;;;;4502944;28;20538;-61
2022/03/24 03:50:21;;;;;;;12.88;10.93;;;;;;;;;;4502916;28;20057;-60
2022/03/24 03:52:32;;;;;;;13.85;11.68;;;;;;;;;;4501881;28;20585;-60
2022/03/24 03:54:43;;;;;;;13.88;11.23;;;;;;;;;;4503241;28;20030;-60
2022/03/24 03:56:53;;;;;;;15.33;12.03;;;;;;;;;;4469821;28;20483;-60
2022/03/24 03:59:05;;;;;;;13.37;11.50;;;;;;;;;;4502287;28;31961;-60
2022/03/24 04:01:16;;;;;;;14.30;11.93;;;;;;;;;;4503852;28;20037;-60
2022/03/24 04:03:33;;;;;;;14.30;11.30;;;;;;;;;;4503071;28;20042;-60
2022/03/24 04:05:44;;;;;;;13.27;11.07;;;;;;;;;;4502587;28;20780;-60
2022/03/24 04:07:55;;;;;;;12.83;10.93;;;;;;;;;;4502753;28;20086;-60
2022/03/24 04:10:05;;;;;;;14.32;11.88;;;;;;;;;;4503393;28;20505;-60
2022/03/24 04:12:16;;;;;;;14.03;11.97;;;;;;;;;;4503961;28;20478;-60
2022/03/24 04:14:26;;;;;;;13.97;11.53;;;;;;;;;;4503103;28;20625;-60
2022/03/24 04:16:37;;;;;;;15.10;12.17;;;;;;;;;;4503540;28;20030;-60
2022/03/24 04:18:47;;;;;;;13.70;11.40;;;;;;;;;;4502380;28;20112;-61
2022/03/24 04:20:57;;;;;;;14.47;11.70;;;;;;;;;;4502126;28;20042;-60
2022/03/24 04:23:09;;;;;;;14.77;11.90;;;;;;;;;;4501340;28;20045;-61
2022/03/24 04:25:20;;;;;;;14.18;11.73;;;;;;;;;;4504021;28;20675;-60
2022/03/24 04:27:31;;;;;;;14.32;11.65;;;;;;;;;;4503255;28;20849;-61
2022/03/24 04:29:42;;;;;;;13.70;11.63;;;;;;;;;;4502570;28;23366;-60
2022/03/24 04:31:52;;;;;;;14.10;11.77;;;;;;;;;;4502986;28;20136;-61
2022/03/24 04:34:03;;;;;;;14.23;12.17;;;;;;;;;;4503077;28;20564;-61
2022/03/24 04:36:13;;;;;;;13.53;11.07;;;;;;;;;;4503955;28;20038;-61
2022/03/24 04:38:24;;;;;;;13.53;11.77;;;;;;;;;;4502554;28;20042;-60
2022/03/24 04:40:34;;;;;;;14.63;12.33;;;;;;;;;;4502739;28;34995;-60
2022/03/24 04:42:47;;;;;;;13.20;11.53;;;;;;;;;;4503416;28;20088;-61
2022/03/24 04:44:58;;;;;;;13.80;12.07;;;;;;;;;;4501289;28;20096;-60
2022/03/24 04:47:08;;;;;;;13.70;11.40;;;;;;;;;;4502041;28;20041;-60
2022/03/24 04:49:19;;;;;;;14.00;11.40;;;;;;;;;;4502983;28;20065;-60
2022/03/24 04:51:29;;;;;;;14.50;11.67;;;;;;;;;;4502860;28;20510;-60
2022/03/24 04:53:40;;;;;;;14.30;11.17;;;;;;;;;;4503682;28;20058;-60
2022/03/24 04:55:50;;;;;;;13.13;11.50;;;;;;;;;;4502678;28;20036;-60
2022/03/24 04:58:03;;;;;;;14.13;11.50;;;;;;;;;;4504000;28;20042;-61
2022/03/24 05:00:16;;;;;;;14.30;11.02;;;;;;;;;;4503300;28;20037;-61
2022/03/24 05:02:26;;;;;;;12.50;10.60;;;;;;;;;;4502957;28;20041;-61
2022/03/24 05:04:36;;;;;;;14.80;11.10;;;;;;;;;;4502796;28;20655;-61
2022/03/24 05:06:47;;;;;;;13.43;11.07;;;;;;;;;;4503471;28;20034;-61
2022/03/24 05:08:58;;;;;;;13.00;10.95;;;;;;;;;;4501567;28;20034;-61
2022/03/24 05:11:08;;;;;;;13.20;11.00;;;;;;;;;;4501849;28;25629;-61
2022/03/24 05:13:19;;;;;;;13.33;11.33;;;;;;;;;;4500344;28;36663;-61
2022/03/24 05:15:29;;;;;;;13.13;9.97;;;;;;;;;;4486898;28;20049;-61
2022/03/24 05:17:40;;;;;;;14.40;10.93;;;;;;;;;;4502963;28;20030;-61
2022/03/24 05:19:52;;;;;;;13.75;11.48;;;;;;;;;;4503167;28;20072;-61
2022/03/24 05:22:03;;;;;;;14.48;10.90;;;;;;;;;;4503256;28;20087;-60
2022/03/24 05:24:14;;;;;;;12.57;10.13;;;;;;;;;;4502236;28;20045;-60
2022/03/24 05:26:25;;;;;;;12.63;10.10;;;;;;;;;;4500728;28;20262;-60
2022/03/24 05:28:35;;;;;;;13.23;10.40;;;;;;;;;;4500950;28;20034;-61
2022/03/24 05:30:47;;;;;;;13.37;10.97;;;;;;;;;;4503250;28;20129;-60
2022/03/24 05:32:57;;;;;;;12.65;10.57;;;;;;;;;;4501995;28;20172;-61
2022/03/24 05:35:09;;;;;;;11.97;10.10;;;;;;;;;;4500093;28;27730;-60
2022/03/24 05:37:20;;;;;;;12.13;9.50;;;;;;;;;;4499222;28;20557;-61
2022/03/24 05:39:30;;;;;;;13.07;10.30;;;;;;;;;;4499622;28;20038;-61
2022/03/24 05:41:41;;;;;;;12.60;10.70;;;;;;;;;;4500251;28;20029;-61
2022/03/24 05:44:04;;;;;;;12.13;10.00;;;;;;;;;;4500711;28;29813;-63
2022/03/24 05:46:14;;;;;;;12.68;10.10;;;;;;;;;;4500713;28;20038;-60
2022/03/24 05:48:24;;;;;;;13.53;10.20;;;;;;;;;;4499973;28;32798;-60
2022/03/24 05:50:59;;;;;;;12.13;9.85;;;;;;;;;;4485666;28;20256;-60
2022/03/24 05:53:14;;;;;;;12.15;10.00;;;;;;;;;;4500914;28;20034;-60
2022/03/24 05:55:25;;;;;;;13.13;11.10;;;;;;;;;;4501059;28;20030;-61
2022/03/24 05:57:35;;;;;;;13.53;10.47;;;;;;;;;;4500734;28;27100;-61
2022/03/24 05:59:46;;;;;;;12.87;10.83;;;;;;;;;;4501103;28;20041;-61
2022/03/24 06:01:57;;;;;;;13.30;10.97;;;;;;;;;;4500772;28;20026;-60
2022/03/24 06:04:08;;;;;;;12.87;10.87;;;;;;;;;;4499783;28;20033;-61
2022/03/24 06:06:19;;;;;;;13.57;11.30;;;;;;;;;;4500763;28;20084;-61
2022/03/24 06:08:30;;;;;;;13.73;11.20;;;;;;;;;;4483230;28;20038;-61
2022/03/24 06:10:41;;;;;;;12.98;10.57;;;;;;;;;;4500698;28;20252;-61
2022/03/24 06:12:52;;;;;;;13.02;10.15;;;;;;;;;;4502177;28;20129;-61
2022/03/24 06:15:04;;;;;;;12.40;10.00;;;;;;;;;;4499597;28;20040;-61
2022/03/24 06:17:14;;;;;;;12.52;10.38;;;;;;;;;;4504517;28;20032;-60
2022/03/24 06:19:25;;;;;;;12.93;10.57;;;;;;;;;;4503771;28;20045;-60
2022/03/24 06:21:37;;;;;;;13.67;10.67;;;;;;;;;;4502092;28;39106;-61
2022/03/24 06:23:47;;;;;;;;;;;;;;;;;;4495793;28;20030;-61
2022/03/24 06:25:58;;;;;;;13.48;10.93;;;;;;;;;;4505503;28;20458;-61
2022/03/24 06:28:08;;;;;;;13.40;11.00;;;;;;;;;;4497234;28;20026;-60
2022/03/24 06:30:19;;;;;;;12.57;9.93;;;;;;;;;;4504443;28;20470;-61
2022/03/24 06:32:30;;;;;;;12.30;10.23;;;;;;;;;;4503766;28;20038;-60
2022/03/24 06:34:41;;;;;;;13.30;11.20;;;;;;;;;;4504277;28;20030;-60
2022/03/24 06:36:52;;;;;;;13.00;10.83;;;;;;;;;;4502779;28;20747;-60
2022/03/24 06:39:03;;;;;;;14.02;11.23;;;;;;;;;;4502749;28;20125;-60
2022/03/24 06:41:14;;;;;;;14.13;11.43;;;;;;;;;;4503145;28;20512;-60
2022/03/24 06:43:25;;;;;;;13.93;11.23;;;;;;;;;;4504526;28;20034;-61
2022/03/24 06:45:36;;;;;;;12.87;10.73;;;;;;;;;;4504267;28;20046;-60
2022/03/24 06:47:47;;;;;;;13.25;11.57;;;;;;;;;;4504157;28;20038;-61
2022/03/24 06:49:57;;;;;;;14.67;12.17;;;;;;;;;;4503843;28;20072;-60
2022/03/24 06:52:08;;;;;;;14.30;12.13;;;;;;;;;;4503356;28;20073;-60
2022/03/24 06:54:18;;;;;;;13.37;10.60;;;;;;;;;;4504772;28;20050;-60
2022/03/24 06:56:28;;;;;;;13.00;10.50;;;;;;;;;;4503855;28;20038;-60
2022/03/24 06:58:39;;;;;;;14.23;11.90;;;;;;;;;;4503208;28;20057;-60
2022/03/24 07:00:49;;;;;;;13.83;11.27;;;;;;;;;;4504123;28;20069;-60
2022/03/24 07:03:01;;;;;;;13.63;11.67;;;;;;;;;;4502829;28;20038;-60
2022/03/24 07:05:13;;;;;;;15.27;11.75;;;;;;;;;;4503271;28;20240;-61
2022/03/24 07:07:25;;;;;;;;;;;;;;;;;;4504327;28;20200;-60
2022/03/24 07:09:36;;;;;;;13.60;11.77;;;;;;;;;;4503792;28;19948;-60
2022/03/24 07:11:46;;;;;;;14.40;12.40;;;;;;;;;;4504487;28;20049;-60
2022/03/24 07:13:56;;;;;;;13.83;11.80;;;;;;;;;;4503837;28;20038;-61
2022/03/24 07:16:07;;;;;;;13.90;11.63;;;;;;;;;;4503458;28;32420;-61
2022/03/24 07:18:17;;;;;;;14.27;11.90;;;;;;;;;;4505006;28;20383;-60
2022/03/24 07:20:28;;;;;;;13.57;11.60;;;;;;;;;;4503124;28;20072;-60
2022/03/24 07:22:38;;;;;;;14.33;12.20;;;;;;;;;;4502521;28;20398;-60
2022/03/24 07:24:49;;;;;;;15.20;12.97;;;;;;;;;;4503038;28;20041;-60
2022/03/24 07:26:59;;;;;;;16.10;12.90;;;;;;;;;;4503121;28;20039;-60
2022/03/24 07:29:10;;;;;;;15.03;12.53;;;;;;;;;;4503347;28;20043;-60
2022/03/24 07:31:23;;;;;;;14.70;12.50;;;;;;;;;;4503934;28;20050;-60
2022/03/24 07:33:33;;;;;;;14.15;11.98;;;;;;;;;;4503418;28;20022;-60
2022/03/24 07:35:44;;;;;;;14.13;12.23;;;;;;;;;;4502304;28;20034;-61
2022/03/24 07:37:54;;;;;;;14.50;12.03;;;;;;;;;;4503730;28;20881;-60
2022/03/24 07:40:05;;;;;;;13.77;11.33;;;;;;;;;;4502091;28;20086;-59
2022/03/24 07:42:16;;;;;;;14.30;11.25;;;;;;;;;;4502798;28;20045;-60
2022/03/24 07:44:26;;;;;;;14.77;12.37;;;;;;;;;;4502608;28;20061;-60
2022/03/24 07:46:37;;;;;;;15.10;12.60;;;;;;;;;;4503650;28;20049;-60
2022/03/24 07:48:49;;;;;;;15.13;12.57;;;;;;;;;;4501286;28;20042;-59
2022/03/24 07:51:00;;;;;;;14.48;11.93;;;;;;;;;;4504204;28;20065;-60
2022/03/24 07:53:13;;;;;;;15.35;12.80;;;;;;;;;;4503801;28;20044;-60
2022/03/24 07:55:29;;;;;;;14.18;12.43;;;;;;;;;;4502929;28;20038;-60
2022/03/24 07:57:39;;;;;;;14.60;12.15;;;;;;;;;;4501492;28;20076;-59
2022/03/24 07:59:50;;;;;;;15.23;13.27;;;;;;;;;;4502767;28;20133;-60
2022/03/24 08:02:00;;;;;;;15.40;13.30;;;;;;;;;;4500389;28;20565;-60
2022/03/24 08:04:11;;;;;;;15.03;12.93;;;;;;;;;;4502840;28;20457;-59
2022/03/24 08:06:22;;;;;;;15.80;13.43;;;;;;;;;;4502610;28;27732;-60
2022/03/24 08:08:32;;;;;;;15.00;12.93;;;;;;;;;;4485378;28;20049;-60
2022/03/24 08:10:45;;;;;;;15.70;13.20;;;;;;;;;;4503002;28;20287;-60
2022/03/24 08:12:55;;;;;;;16.70;14.27;;;;;;;;;;4503019;28;20635;-60
2022/03/24 08:15:06;;;;;;;15.30;13.33;;;;;;;;;;4502827;28;20085;-60
2022/03/24 08:17:17;;;;;;;16.13;13.48;;;;;;;;;;4502746;28;20038;-60
2022/03/24 08:19:27;;;;;;;15.57;13.23;;;;;;;;;;4502493;28;20037;-60
2022/03/24 08:21:38;;;;;;;16.87;13.73;;;;;;;;;;4501321;28;20495;-60
2022/03/24 08:23:48;;;;;;;15.47;13.20;;;;;;;;;;4495589;28;20026;-60
2022/03/24 08:25:59;;;;;;;17.03;13.80;;;;;;;;;;4501230;28;20041;-60
2022/03/24 08:28:10;;;;;;;16.50;14.10;;;;;;;;;;4503664;28;20045;-60
2022/03/24 08:30:21;;;;;;;15.80;13.38;;;;;;;;;;4494634;28;20117;-60
2022/03/24 08:32:32;;;;;;;16.67;13.45;;;;;;;;;;4503467;28;20119;-60
2022/03/24 08:34:42;;;;;;;15.57;13.27;;;;;;;;;;4504106;28;20501;-61
2022/03/24 08:36:53;;;;;;;16.03;13.90;;;;;;;;;;4488319;28;34904;-60
2022/03/24 08:39:03;;;;;;;17.00;13.57;;;;;;;;;;4501813;28;20049;-61
2022/03/24 08:41:14;;;;;;;16.27;13.40;;;;;;;;;;4502565;28;20081;-60
2022/03/24 08:43:24;;;;;;;15.50;12.93;;;;;;;;;;4503811;28;20157;-60
2022/03/24 08:45:36;;;;;;;15.97;13.17;;;;;;;;;;4503612;28;20105;-60
2022/03/24 08:47:47;;;;;;;16.33;13.50;;;;;;;;;;4501957;28;20026;-60
2022/03/24 08:49:57;;;;;;;16.77;13.90;;;;;;;;;;4503763;28;20042;-60
2022/03/24 08:52:09;;;;;;;16.13;13.73;;;;;;;;;;4503368;28;20160;-61
2022/03/24 08:54:19;;;;;;;;;;;;;;;;;;4499530;28;20026;-60
2022/03/24 08:56:30;;;;;;;17.52;13.73;;;;;;;;;;4502897;28;19917;-61
2022/03/24 08:58:40;;;;;;;16.53;13.67;;;;;;;;;;4502093;28;36859;-60
2022/03/24 09:00:51;;;;;;;16.43;13.93;;;;;;;;;;4502814;28;20034;-60
2022/03/24 09:03:01;;;;;;;16.20;13.93;;;;;;;;;;4502815;28;20445;-60
2022/03/24 09:05:13;;;;;;;15.63;13.20;;;;;;;;;;4501489;28;20040;-61
2022/03/24 09:07:24;;;;;;;17.10;13.73;;;;;;;;;;4494815;28;20034;-61
2022/03/24 09:09:34;;;;;;;17.40;14.17;;;;;;;;;;4502283;28;20513;-60
2022/03/24 09:11:45;;;;;;;16.67;13.53;;;;;;;;;;4501802;28;20153;-60
2022/03/24 09:13:55;;;;;;;15.60;13.80;;;;;;;;;;4502541;28;20042;-60
2022/03/24 09:16:06;;;;;;;15.53;13.27;;;;;;;;;;4518353;28;20029;-60
2022/03/24 09:18:18;;;;;;;16.73;14.18;;;;;;;;;;4504363;28;20133;-60
2022/03/24 09:20:28;;;;;;;17.08;13.73;;;;;;;;;;4502137;28;20034;-60
2022/03/24 09:22:43;;;;;;;16.40;14.07;;;;;;;;;;4502713;28;20042;-59
2022/03/24 09:24:54;;;;;;;16.42;13.88;;;;;;;;;;4500656;28;20088;-62
2022/03/24 09:27:05;;;;;;;17.60;14.53;;;;;;;;;;4501414;28;20041;-60
2022/03/24 09:29:16;;;;;;;18.15;13.77;;;;;;;;;;4506168;28;20709;-61
2022/03/24 09:31:26;;;;;;;17.57;13.77;;;;;;;;;;4501739;28;20076;-59
2022/03/24 09:33:37;;;;;;;17.70;14.50;;;;;;;;;;4502309;28;20403;-59
2022/03/24 09:35:48;;;;;;;17.27;14.40;;;;;;;;;;4502393;28;20616;-60
2022/03/24 09:37:58;;;;;;;17.27;13.77;;;;;;;;;;4500796;28;20037;-60
2022/03/24 09:40:11;;;;;;;18.13;14.77;;;;;;;;;;4502295;28;20034;-60
2022/03/24 09:42:22;;;;;;;16.90;14.35;;;;;;;;;;4501441;28;20038;-60
2022/03/24 09:44:33;;;;;;;18.00;14.40;;;;;;;;;;4501152;28;20026;-60
2022/03/24 09:46:43;;;;;;;17.60;14.48;;;;;;;;;;4501325;28;20030;-60
2022/03/24 09:48:55;;;;;;;18.53;14.43;;;;;;;;;;4501895;28;20049;-60
2022/03/24 09:51:05;;;;;;;17.58;14.20;;;;;;;;;;4502181;28;20108;-60
2022/03/24 09:53:17;;;;;;;20.00;15.20;;;;;;;;;;4503748;28;20077;-60
2022/03/24 09:55:32;;;;;;;17.30;14.80;;;;;;;;;;4503812;28;20600;-60
2022/03/24 09:57:43;;;;;;;18.00;15.18;;;;;;;;;;4505266;28;20045;-60
2022/03/24 09:59:53;;;;;;;17.57;14.97;;;;;;;;;;4505381;28;20401;-60
2022/03/24 10:02:08;;;;;;;18.20;15.10;;;;;;;;;;4505461;28;20092;-60
2022/03/24 10:04:18;;;;;;;19.67;14.55;;;;;;;;;;4496186;28;20054;-60
2022/03/24 10:06:29;;;;;;;18.17;14.90;;;;;;;;;;4505067;28;20045;-59
2022/03/24 10:08:39;;;;;;;17.60;14.83;;;;;;;;;;4502214;28;20038;-60
2022/03/24 10:10:50;;;;;;;18.17;14.73;;;;;;;;;;4504790;28;20046;-60
2022/03/24 10:13:01;;;;;;;17.20;14.80;;;;;;;;;;4505459;28;20077;-60
2022/03/24 10:15:12;;;;;;;;;;;;;;;;;;4503455;28;20109;-59
2022/03/24 10:17:23;;;;;;;17.73;14.23;;;;;;;;;;4505225;28;19988;-60
2022/03/24 10:19:34;;;;;;;18.60;14.70;;;;;;;;;;4504195;28;20098;-60
2022/03/24 10:21:48;;;;;;;18.67;15.18;;;;;;;;;;4504595;28;20033;-60
2022/03/24 10:24:11;;;;;;;18.45;14.98;;;;;;;;;;4504918;28;20042;-60
2022/03/24 10:26:22;;;;;;;17.92;15.30;;;;;;;;;;4503887;28;20034;-60
2022/03/24 10:28:32;;;;;;;18.20;14.67;;;;;;;;;;4504887;28;20064;-59
2022/03/24 10:30:53;;;;;;;17.00;14.23;;;;;;;;;;4503505;28;26048;-60
2022/03/24 10:33:03;;;;;;;17.83;14.93;;;;;;;;;;4503641;28;20038;-59
2022/03/24 10:35:14;;;;;;;18.10;14.93;;;;;;;;;;4502945;28;20042;-60
2022/03/24 10:37:26;;;;;;;18.07;14.87;;;;;;;;;;4502916;28;20250;-60
2022/03/24 10:39:37;;;;;;;18.48;14.93;;;;;;;;;;4503682;28;20075;-59
2022/03/24 10:41:48;;;;;;;;;;;;;;;;;;4505014;28;21130;-60
2022/03/24 10:44:12;;;;;;;19.13;15.27;;;;;;;;;;4504288;28;32797;-60
2022/03/24 10:46:30;;;;;;;18.80;15.35;;;;;;;;;;4503884;28;20848;-60
2022/03/24 10:48:41;;;;;;;18.08;14.73;;;;;;;;;;4503263;28;21020;-59
2022/03/24 10:50:55;;;;;;;18.87;14.50;;;;;;;;;;4503504;28;20090;-58
2022/03/24 10:53:15;;;;;;;18.13;14.82;;;;;;;;;;4504446;28;20088;-57
2022/03/24 10:55:44;;;;;;;20.58;16.00;;;;;;;;;;4487023;28;20186;-58
2022/03/24 10:57:56;;;;;;;18.42;15.30;;;;;;;;;;4502720;28;20061;-60
2022/03/24 11:00:09;;;;;;;18.85;15.45;;;;;;;;;;4502553;28;20038;-60
2022/03/24 11:02:20;;;;;;;17.77;14.60;;;;;;;;;;4502376;28;20577;-60
2022/03/24 11:04:31;;;;;;;18.20;15.05;;;;;;;;;;4503523;28;26157;-59
2022/03/24 11:06:49;;;;;;;17.93;14.63;;;;;;;;;;4504840;28;20033;-60
2022/03/24 11:09:00;;;;;;;18.92;15.23;;;;;;;;;;4481997;28;20038;-60
2022/03/24 11:11:13;;;;;;;18.33;14.85;;;;;;;;;;4503731;28;20052;-61
2022/03/24 11:13:27;;;;;;;19.15;15.63;;;;;;;;;;4503802;28;20030;-60
2022/03/24 11:15:39;;;;;;;19.17;15.38;;;;;;;;;;4487889;28;20042;-61
2022/03/24 11:17:50;;;;;;;19.05;15.80;;;;;;;;;;4503783;28;20707;-60
2022/03/24 11:20:05;;;;;;;18.03;14.43;;;;;;;;;;4503738;28;20060;-60
2022/03/24 11:22:16;;;;;;;18.65;15.15;;;;;;;;;;4501416;28;20569;-60
2022/03/24 11:24:26;;;;;;;19.73;14.20;;;;;;;;;;4502769;28;20483;-60
2022/03/24 11:26:37;;;;;;;18.60;15.30;;;;;;;;;;4503676;28;26284;-60
2022/03/24 11:28:49;;;;;;;18.43;14.80;;;;;;;;;;4503266;28;20092;-60
2022/03/24 11:31:04;;;;;;;18.85;15.38;;;;;;;;;;4502675;28;20603;-60
2022/03/24 11:33:16;;;;;;;18.90;14.98;;;;;;;;;;4502604;28;20033;-60
2022/03/24 11:35:27;;;;;;;18.25;15.23;;;;;;;;;;4502328;28;20759;-60
2022/03/24 11:37:37;;;;;;;19.17;14.67;;;;;;;;;;4502450;28;20042;-60
2022/03/24 11:40:08;;;;;;;16.97;13.83;;;;;;;;;;4519295;28;20037;-60
2022/03/24 11:42:19;;;;;;;18.87;14.77;;;;;;;;;;4493876;28;20041;-60
2022/03/24 11:44:43;;;;;;;17.43;14.07;;;;;;;;;;4501547;28;20604;-60
2022/03/24 11:47:02;;;;;;;17.65;14.32;;;;;;;;;;4503219;28;21067;-60
2022/03/24 11:49:22;;;;;;;17.83;14.38;;;;;;;;;;4504155;28;20038;-60
2022/03/24 11:51:32;;;;;;;16.80;14.05;;;;;;;;;;4502636;28;20161;-59
2022/03/24 11:53:44;;;;;;;17.83;13.90;;;;;;;;;;4501659;28;27282;-59
2022/03/24 11:56:03;;;;;;;19.15;15.50;;;;;;;;;;4501970;28;20604;-60
2022/03/24 11:58:13;;;;;;;17.67;14.80;;;;;;;;;;4503081;28;20718;-60
2022/03/24 12:00:24;;;;;;;17.90;14.43;;;;;;;;;;4502493;28;30893;-60
2022/03/24 12:02:34;;;;;;;17.37;14.20;;;;;;;;;;4503462;28;20046;-63
2022/03/24 12:04:46;;;;;;;17.33;14.13;;;;;;;;;;4505432;28;20557;-60
2022/03/24 12:06:58;;;;;;;18.80;14.95;;;;;;;;;;4501945;28;20038;-59
2022/03/24 12:09:09;;;;;;;;;;;;;;;;;;4504263;28;20048;-60
2022/03/24 12:11:32;;;;;;;19.40;15.30;;;;;;;;;;4503451;28;20396;-60
2022/03/24 12:13:54;;;;;;;19.10;15.68;;;;;;;;;;4502386;28;20621;-60
2022/03/24 12:16:12;;;;;;;18.02;15.27;;;;;;;;;;4503392;28;20030;-59
2022/03/24 12:18:23;;;;;;;19.88;15.32;;;;;;;;;;4503634;28;20040;-59
2022/03/24 12:20:41;;;;;;;19.07;15.80;;;;;;;;;;4485030;28;33988;-59
2022/03/24 12:22:58;;;;;;;20.70;15.70;;;;;;;;;;4501883;28;20624;-58
2022/03/24 12:25:09;;;;;;;18.95;15.25;;;;;;;;;;4506162;28;20033;-59
2022/03/24 12:27:19;;;;;;;20.03;16.87;;;;;;;;;;4501945;28;20160;-59
2022/03/24 12:29:30;;;;;;;20.70;15.83;;;;;;;;;;4504350;28;20470;-60
2022/03/24 12:32:04;;;;;;;20.25;15.75;;;;;;;;;;4502681;28;20041;-60
2022/03/24 12:34:14;;;;;;;20.15;15.63;;;;;;;;;;4502986;28;20046;-59
2022/03/24 12:36:36;;;;;;;20.27;16.30;;;;;;;;;;4502599;28;20038;-60
2022/03/24 12:38:48;;;;;;;21.00;17.08;;;;;;;;;;4503990;28;21016;-60
2022/03/24 12:41:05;;;;;;;21.05;16.88;;;;;;;;;;4501670;28;20637;-60
2022/03/24 12:43:26;;;;;;;21.13;17.08;;;;;;;;;;4503397;28;20084;-60
2022/03/24 12:45:38;;;;;;;21.13;17.10;;;;;;;;;;4502913;28;20742;-60
2022/03/24 12:47:49;;;;;;;19.13;16.08;;;;;;;;;;4503240;28;20034;-60
2022/03/24 12:50:08;;;;;;;21.52;17.67;;;;;;;;;;4518305;28;20695;-60